sensor_id;sensor_type;location;lat;lon;timestamp;pressure;altitude;pressure_sealevel;temperature;humidity
6030;BME280;3043;42.682;23.376;2023-04-28T00:00:43;95149.84;;;7.29;100.00
6030;BME280;3043;42.682;23.376;2023-04-28T00:03:08;95152.50;;;7.17;100.00
6030;BME280;3043;42.682;23.376;2023-04-28T00:05:33;95154.31;;;7.12;100.00
6030;BME280;3043;42.682;23.376;2023-04-28T00:07:59;95161.06;;;7.22;100.00
6030;BME280;3043;42.682;23.376;2023-04-28T00:10:24;95158.69;;;7.01;100.00
6030;BME280;3043;42.682;23.376;2023-04-28T00:12:50;95161.25;;;7.01;100.00
6030;BME280;3043;42.682;23.376;2023-04-28T00:15:15;95161.31;;;6.93;100.00
6030;BME280;3043;42.682;23.376;2023-04-28T00:17:41;95158.69;;;6.98;100.00
6030;BME280;3043;42.682;23.376;2023-04-28T00:20:07;95160.47;;;6.90;100.00
6030;BME280;3043;42.682;23.376;2023-04-28T00:22:33;95158.75;;;6.92;100.00
6030;BME280;3043;42.682;23.376;2023-04-28T00:24:59;95156.28;;;6.80;100.00
6030;BME280;3043;42.682;23.376;2023-04-28T00:27:24;95158.94;;;6.71;100.00
6030;BME280;3043;42.682;23.376;2023-04-28T00:29:50;95158.00;;;6.76;100.00
6030;BME280;3043;42.682;23.376;2023-04-28T00:32:15;95162.28;;;6.82;100.00
6030;BME280;3043;42.682;23.376;2023-04-28T00:34:41;95158.06;;;6.70;100.00
6030;BME280;3043;42.682;23.376;2023-04-28T00:37:06;95162.44;;;6.55;100.00
6030;BME280;3043;42.682;23.376;2023-04-28T00:39:32;95166.84;;;6.44;100.00
6030;BME280;3043;42.682;23.376;2023-04-28T00:41:57;95172.03;;;6.35;100.00
6030;BME280;3043;42.682;23.376;2023-04-28T00:44:22;95165.09;;;6.43;100.00
6030;BME280;3043;42.682;23.376;2023-04-28T00:46:48;95166.00;;;6.39;100.00
6030;BME280;3043;42.682;23.376;2023-04-28T00:49:16;95170.28;;;6.35;100.00
6030;BME280;3043;42.682;23.376;2023-04-28T00:51:41;95162.63;;;6.28;100.00
6030;BME280;3043;42.682;23.376;2023-04-28T00:54:07;95172.84;;;6.37;100.00
6030;BME280;3043;42.682;23.376;2023-04-28T00:56:33;95168.66;;;6.24;100.00
6030;BME280;3043;42.682;23.376;2023-04-28T00:58:58;95167.00;;;6.17;100.00
6030;BME280;3043;42.682;23.376;2023-04-28T01:01:23;95167.78;;;6.25;100.00
6030;BME280;3043;42.682;23.376;2023-04-28T01:03:49;95169.56;;;6.08;100.00
6030;BME280;3043;42.682;23.376;2023-04-28T01:06:16;95184.16;;;6.04;100.00
6030;BME280;3043;42.682;23.376;2023-04-28T01:08:41;95180.75;;;5.98;100.00
6030;BME280;3043;42.682;23.376;2023-04-28T01:11:08;95182.44;;;6.06;100.00
6030;BME280;3043;42.682;23.376;2023-04-28T01:13:38;95176.47;;;6.04;100.00
6030;BME280;3043;42.682;23.376;2023-04-28T01:16:05;95185.03;;;5.96;100.00
6030;BME280;3043;42.682;23.376;2023-04-28T01:18:31;95182.50;;;5.90;100.00
6030;BME280;3043;42.682;23.376;2023-04-28T01:20:57;95188.50;;;5.92;100.00
6030;BME280;3043;42.682;23.376;2023-04-28T01:23:22;95186.78;;;5.94;100.00
6030;BME280;3043;42.682;23.376;2023-04-28T01:25:48;95183.38;;;5.92;100.00
6030;BME280;3043;42.682;23.376;2023-04-28T01:28:13;95187.66;;;5.76;100.00
6030;BME280;3043;42.682;23.376;2023-04-28T01:30:39;95188.50;;;5.89;100.00
6030;BME280;3043;42.682;23.376;2023-04-28T01:33:04;95187.59;;;5.97;100.00
6030;BME280;3043;42.682;23.376;2023-04-28T01:35:30;95186.81;;;5.85;100.00
6030;BME280;3043;42.682;23.376;2023-04-28T01:37:55;95190.22;;;5.90;100.00
6030;BME280;3043;42.682;23.376;2023-04-28T01:40:21;95184.25;;;5.83;100.00
6030;BME280;3043;42.682;23.376;2023-04-28T01:42:46;95181.72;;;5.70;100.00
6030;BME280;3043;42.682;23.376;2023-04-28T01:45:11;95181.72;;;5.70;100.00
6030;BME280;3043;42.682;23.376;2023-04-28T01:47:37;95186.84;;;5.70;100.00
6030;BME280;3043;42.682;23.376;2023-04-28T01:50:03;95181.72;;;5.67;100.00
6030;BME280;3043;42.682;23.376;2023-04-28T01:52:29;95192.81;;;5.67;100.00
6030;BME280;3043;42.682;23.376;2023-04-28T01:54:54;95186.81;;;5.79;100.00
6030;BME280;3043;42.682;23.376;2023-04-28T01:57:20;95185.13;;;5.69;100.00
6030;BME280;3043;42.682;23.376;2023-04-28T01:59:45;95181.72;;;5.56;100.00
6030;BME280;3043;42.682;23.376;2023-04-28T02:02:11;95188.59;;;5.56;100.00
6030;BME280;3043;42.682;23.376;2023-04-28T02:04:37;95191.97;;;5.71;100.00
6030;BME280;3043;42.682;23.376;2023-04-28T02:07:03;95190.22;;;5.75;100.00
6030;BME280;3043;42.682;23.376;2023-04-28T02:09:29;95183.41;;;5.71;100.00
6030;BME280;3043;42.682;23.376;2023-04-28T02:11:54;95191.94;;;5.79;100.00
6030;BME280;3043;42.682;23.376;2023-04-28T02:14:20;95188.53;;;5.72;100.00
6030;BME280;3043;42.682;23.376;2023-04-28T02:16:45;95195.41;;;5.60;100.00
6030;BME280;3043;42.682;23.376;2023-04-28T02:19:11;95200.56;;;5.52;100.00
6030;BME280;3043;42.682;23.376;2023-04-28T02:21:36;95195.44;;;5.50;100.00
6030;BME280;3043;42.682;23.376;2023-04-28T02:24:02;95200.56;;;5.47;100.00
6030;BME280;3043;42.682;23.376;2023-04-28T02:26:28;95202.28;;;5.51;100.00
6030;BME280;3043;42.682;23.376;2023-04-28T02:28:53;95206.59;;;5.33;100.00
6030;BME280;3043;42.682;23.376;2023-04-28T02:31:18;95197.16;;;5.41;100.00
6030;BME280;3043;42.682;23.376;2023-04-28T02:33:44;95204.03;;;5.36;100.00
6030;BME280;3043;42.682;23.376;2023-04-28T02:36:09;95214.28;;;5.40;100.00
6030;BME280;3043;42.682;23.376;2023-04-28T02:38:35;95212.56;;;5.45;100.00
6030;BME280;3043;42.682;23.376;2023-04-28T02:41:03;95214.28;;;5.40;100.00
6030;BME280;3043;42.682;23.376;2023-04-28T02:43:32;95205.69;;;5.57;100.00
6030;BME280;3043;42.682;23.376;2023-04-28T02:45:58;95215.97;;;5.44;100.00
6030;BME280;3043;42.682;23.376;2023-04-28T02:48:24;95227.97;;;5.36;100.00
6030;BME280;3043;42.682;23.376;2023-04-28T02:50:50;95218.56;;;5.32;100.00
6030;BME280;3043;42.682;23.376;2023-04-28T02:53:17;95223.69;;;5.43;100.00
6030;BME280;3043;42.682;23.376;2023-04-28T02:55:43;95229.69;;;5.34;100.00
6030;BME280;3043;42.682;23.376;2023-04-28T02:58:08;95222.81;;;5.45;100.00
6030;BME280;3043;42.682;23.376;2023-04-28T03:00:34;95226.25;;;5.38;100.00
6030;BME280;3043;42.682;23.376;2023-04-28T03:03:00;95229.72;;;5.25;100.00
6030;BME280;3043;42.682;23.376;2023-04-28T03:05:26;95227.97;;;5.33;100.00
6030;BME280;3043;42.682;23.376;2023-04-28T03:07:51;95231.41;;;5.29;100.00
6030;BME280;3043;42.682;23.376;2023-04-28T03:10:17;95225.41;;;5.33;100.00
6030;BME280;3043;42.682;23.376;2023-04-28T03:12:42;95227.97;;;5.30;100.00
6030;BME280;3043;42.682;23.376;2023-04-28T03:15:08;95229.66;;;5.54;100.00
6030;BME280;3043;42.682;23.376;2023-04-28T03:17:34;95227.97;;;5.39;100.00
6030;BME280;3043;42.682;23.376;2023-04-28T03:20:06;95234.81;;;5.49;100.00
6030;BME280;3043;42.682;23.376;2023-04-28T03:22:31;95242.47;;;5.63;100.00
6030;BME280;3043;42.682;23.376;2023-04-28T03:24:57;95233.09;;;5.39;100.00
6030;BME280;3043;42.682;23.376;2023-04-28T03:27:22;95248.50;;;5.39;100.00
6030;BME280;3043;42.682;23.376;2023-04-28T03:29:48;95250.22;;;5.49;100.00
6030;BME280;3043;42.682;23.376;2023-04-28T03:32:13;95251.91;;;5.41;100.00
6030;BME280;3043;42.682;23.376;2023-04-28T03:34:38;95257.06;;;5.47;100.00
6030;BME280;3043;42.682;23.376;2023-04-28T03:37:04;95264.75;;;5.44;100.00
6030;BME280;3043;42.682;23.376;2023-04-28T03:39:29;95264.72;;;5.72;100.00
6030;BME280;3043;42.682;23.376;2023-04-28T03:41:55;95265.56;;;5.96;100.00
6030;BME280;3043;42.682;23.376;2023-04-28T03:44:21;95267.13;;;6.38;100.00
6030;BME280;3043;42.682;23.376;2023-04-28T03:46:48;95272.97;;;6.68;100.00
6030;BME280;3043;42.682;23.376;2023-04-28T03:49:13;95273.47;;;7.23;100.00
6030;BME280;3043;42.682;23.376;2023-04-28T03:51:39;95274.16;;;7.43;100.00
6030;BME280;3043;42.682;23.376;2023-04-28T03:54:05;95282.66;;;7.54;100.00
6030;BME280;3043;42.682;23.376;2023-04-28T03:56:30;95283.19;;;7.88;100.00
6030;BME280;3043;42.682;23.376;2023-04-28T03:58:56;95285.25;;;8.39;99.86
6030;BME280;3043;42.682;23.376;2023-04-28T04:01:21;95287.97;;;8.25;98.49
6030;BME280;3043;42.682;23.376;2023-04-28T04:03:47;95297.78;;;8.67;95.11
6030;BME280;3043;42.682;23.376;2023-04-28T04:06:13;95309.97;;;9.23;91.81
6030;BME280;3043;42.682;23.376;2023-04-28T04:08:39;95299.34;;;9.93;86.18
6030;BME280;3043;42.682;23.376;2023-04-28T04:11:04;95304.69;;;10.34;81.77
6030;BME280;3043;42.682;23.376;2023-04-28T04:13:30;95308.91;;;10.38;78.36
6030;BME280;3043;42.682;23.376;2023-04-28T04:15:55;95305.09;;;10.98;75.30
6030;BME280;3043;42.682;23.376;2023-04-28T04:18:21;95309.41;;;11.37;70.26
6030;BME280;3043;42.682;23.376;2023-04-28T04:20:46;95312.63;;;11.48;67.99
6030;BME280;3043;42.682;23.376;2023-04-28T04:23:12;95316.44;;;12.05;66.84
6030;BME280;3043;42.682;23.376;2023-04-28T04:25:37;95323.09;;;12.47;63.00
6030;BME280;3043;42.682;23.376;2023-04-28T04:28:02;95326.66;;;12.76;59.84
6030;BME280;3043;42.682;23.376;2023-04-28T04:30:28;95318.03;;;13.06;57.72
6030;BME280;3043;42.682;23.376;2023-04-28T04:32:53;95323.19;;;12.44;57.87
6030;BME280;3043;42.682;23.376;2023-04-28T04:35:21;95322.19;;;12.81;57.08
6030;BME280;3043;42.682;23.376;2023-04-28T04:37:47;95326.66;;;13.08;54.68
6030;BME280;3043;42.682;23.376;2023-04-28T04:40:12;95326.75;;;13.05;54.20
6030;BME280;3043;42.682;23.376;2023-04-28T04:42:38;95328.16;;;13.15;54.15
6030;BME280;3043;42.682;23.376;2023-04-28T04:45:04;95325.50;;;14.26;51.81
6030;BME280;3043;42.682;23.376;2023-04-28T04:47:29;95335.53;;;14.63;50.49
6030;BME280;3043;42.682;23.376;2023-04-28T04:49:55;95337.06;;;14.18;50.11
6030;BME280;3043;42.682;23.376;2023-04-28T04:52:20;95341.25;;;13.96;50.44
6030;BME280;3043;42.682;23.376;2023-04-28T04:54:46;95342.28;;;13.90;50.28
6030;BME280;3043;42.682;23.376;2023-04-28T04:57:11;95343.47;;;14.34;50.21
6030;BME280;3043;42.682;23.376;2023-04-28T04:59:37;95346.34;;;14.26;49.46
6030;BME280;3043;42.682;23.376;2023-04-28T05:02:02;95346.59;;;14.94;48.84
6030;BME280;3043;42.682;23.376;2023-04-28T05:04:28;95343.47;;;15.08;47.40
6030;BME280;3043;42.682;23.376;2023-04-28T05:06:53;95349.56;;;15.08;46.74
6030;BME280;3043;42.682;23.376;2023-04-28T05:09:19;95344.88;;;15.41;47.13
6030;BME280;3043;42.682;23.376;2023-04-28T05:11:44;95349.66;;;15.05;46.32
6030;BME280;3043;42.682;23.376;2023-04-28T05:14:10;95349.63;;;15.97;45.16
6030;BME280;3043;42.682;23.376;2023-04-28T05:16:37;95351.44;;;15.95;44.31
6030;BME280;3043;42.682;23.376;2023-04-28T05:19:03;95347.50;;;15.85;44.42
6030;BME280;3043;42.682;23.376;2023-04-28T05:21:28;95347.88;;;15.53;43.99
6030;BME280;3043;42.682;23.376;2023-04-28T05:23:54;95352.38;;;15.71;44.23
6030;BME280;3043;42.682;23.376;2023-04-28T05:26:20;95357.75;;;16.12;44.28
6030;BME280;3043;42.682;23.376;2023-04-28T05:28:45;95353.03;;;15.99;43.73
6030;BME280;3043;42.682;23.376;2023-04-28T05:31:11;95355.09;;;16.55;42.24
6030;BME280;3043;42.682;23.376;2023-04-28T05:33:36;95355.91;;;17.74;40.97
6030;BME280;3043;42.682;23.376;2023-04-28T05:36:02;95364.94;;;17.67;40.09
6030;BME280;3043;42.682;23.376;2023-04-28T05:38:27;95352.84;;;17.26;39.72
6030;BME280;3043;42.682;23.376;2023-04-28T05:40:53;95346.72;;;18.72;38.90
6030;BME280;3043;42.682;23.376;2023-04-28T05:43:18;95351.13;;;18.55;38.27
6030;BME280;3043;42.682;23.376;2023-04-28T05:45:44;95345.66;;;19.26;38.04
6030;BME280;3043;42.682;23.376;2023-04-28T05:48:09;95348.38;;;19.24;37.44
6030;BME280;3043;42.682;23.376;2023-04-28T05:50:35;95345.94;;;18.87;37.38
6030;BME280;3043;42.682;23.376;2023-04-28T05:53:00;95349.94;;;17.89;38.22
6030;BME280;3043;42.682;23.376;2023-04-28T05:55:26;95336.66;;;19.14;36.24
6030;BME280;3043;42.682;23.376;2023-04-28T05:57:52;95355.75;;;17.77;38.48
6030;BME280;3043;42.682;23.376;2023-04-28T06:00:18;95346.03;;;17.42;39.10
6030;BME280;3043;42.682;23.376;2023-04-28T06:02:43;95349.34;;;17.27;39.02
6030;BME280;3043;42.682;23.376;2023-04-28T06:05:09;95360.69;;;17.46;38.92
6030;BME280;3043;42.682;23.376;2023-04-28T06:07:35;95357.88;;;17.69;38.83
6030;BME280;3043;42.682;23.376;2023-04-28T06:10:00;95356.28;;;18.21;38.08
6030;BME280;3043;42.682;23.376;2023-04-28T06:12:26;95351.34;;;18.84;37.09
6030;BME280;3043;42.682;23.376;2023-04-28T06:14:51;95359.59;;;19.76;35.68
6030;BME280;3043;42.682;23.376;2023-04-28T06:17:19;95357.00;;;20.54;34.93
6030;BME280;3043;42.682;23.376;2023-04-28T06:19:45;95352.09;;;20.32;34.88
6030;BME280;3043;42.682;23.376;2023-04-28T06:22:11;95358.00;;;20.05;35.35
6030;BME280;3043;42.682;23.376;2023-04-28T06:24:36;95349.84;;;19.63;35.84
6030;BME280;3043;42.682;23.376;2023-04-28T06:27:01;95363.50;;;20.47;34.69
6030;BME280;3043;42.682;23.376;2023-04-28T06:29:27;95363.41;;;20.48;34.52
6030;BME280;3043;42.682;23.376;2023-04-28T06:31:52;95357.13;;;20.51;35.17
6030;BME280;3043;42.682;23.376;2023-04-28T06:34:24;95355.63;;;19.85;35.38
6030;BME280;3043;42.682;23.376;2023-04-28T06:36:56;95351.72;;;19.76;35.91
6030;BME280;3043;42.682;23.376;2023-04-28T06:39:22;95348.84;;;19.81;35.50
6030;BME280;3043;42.682;23.376;2023-04-28T06:41:47;95357.81;;;19.77;35.77
6030;BME280;3043;42.682;23.376;2023-04-28T06:44:13;95352.75;;;20.36;35.21
6030;BME280;3043;42.682;23.376;2023-04-28T06:46:38;95343.94;;;19.75;34.81
6030;BME280;3043;42.682;23.376;2023-04-28T06:49:04;95342.56;;;20.30;33.85
6030;BME280;3043;42.682;23.376;2023-04-28T06:51:32;95346.63;;;20.80;33.70
6030;BME280;3043;42.682;23.376;2023-04-28T06:53:57;95339.59;;;20.81;33.31
6030;BME280;3043;42.682;23.376;2023-04-28T06:56:23;95344.56;;;21.15;33.31
6030;BME280;3043;42.682;23.376;2023-04-28T06:58:49;95347.22;;;21.29;33.31
6030;BME280;3043;42.682;23.376;2023-04-28T07:01:15;95343.06;;;21.11;33.60
6030;BME280;3043;42.682;23.376;2023-04-28T07:03:42;95352.00;;;22.47;32.14
6030;BME280;3043;42.682;23.376;2023-04-28T07:06:07;95345.94;;;22.99;31.29
6030;BME280;3043;42.682;23.376;2023-04-28T07:08:33;95349.25;;;23.15;31.76
6030;BME280;3043;42.682;23.376;2023-04-28T07:10:59;95347.06;;;22.82;30.66
6030;BME280;3043;42.682;23.376;2023-04-28T07:13:31;95347.41;;;23.67;30.44
6030;BME280;3043;42.682;23.376;2023-04-28T07:15:57;95340.34;;;23.42;29.86
6030;BME280;3043;42.682;23.376;2023-04-28T07:18:23;95342.41;;;22.60;31.02
6030;BME280;3043;42.682;23.376;2023-04-28T07:20:48;95337.25;;;23.36;30.89
6030;BME280;3043;42.682;23.376;2023-04-28T07:23:14;95339.16;;;24.69;29.72
6030;BME280;3043;42.682;23.376;2023-04-28T07:25:39;95349.31;;;24.62;28.93
6030;BME280;3043;42.682;23.376;2023-04-28T07:28:06;95348.41;;;23.14;29.77
6030;BME280;3043;42.682;23.376;2023-04-28T07:30:31;95336.16;;;24.01;28.80
6030;BME280;3043;42.682;23.376;2023-04-28T07:32:57;95336.97;;;22.89;29.44
6030;BME280;3043;42.682;23.376;2023-04-28T07:35:23;95343.28;;;21.64;31.74
6030;BME280;3043;42.682;23.376;2023-04-28T07:37:48;95330.91;;;23.38;29.63
6030;BME280;3043;42.682;23.376;2023-04-28T07:40:14;95340.13;;;22.14;30.74
6030;BME280;3043;42.682;23.376;2023-04-28T07:42:40;95347.66;;;22.60;30.04
6030;BME280;3043;42.682;23.376;2023-04-28T07:45:06;95343.66;;;22.67;29.61
6030;BME280;3043;42.682;23.376;2023-04-28T07:47:31;95336.41;;;23.48;28.93
6030;BME280;3043;42.682;23.376;2023-04-28T07:49:57;95333.41;;;23.90;28.98
6030;BME280;3043;42.682;23.376;2023-04-28T07:52:24;95334.44;;;23.00;29.21
6030;BME280;3043;42.682;23.376;2023-04-28T07:54:50;95341.81;;;22.95;29.43
6030;BME280;3043;42.682;23.376;2023-04-28T07:57:15;95340.09;;;23.70;28.83
6030;BME280;3043;42.682;23.376;2023-04-28T07:59:41;95334.28;;;23.28;29.44
6030;BME280;3043;42.682;23.376;2023-04-28T08:02:06;95345.88;;;24.73;27.58
6030;BME280;3043;42.682;23.376;2023-04-28T08:04:32;95345.06;;;23.75;28.32
6030;BME280;3043;42.682;23.376;2023-04-28T08:06:59;95349.41;;;24.84;27.84
6030;BME280;3043;42.682;23.376;2023-04-28T08:09:25;95343.91;;;25.89;27.03
6030;BME280;3043;42.682;23.376;2023-04-28T08:11:50;95339.50;;;26.55;25.33
6030;BME280;3043;42.682;23.376;2023-04-28T08:14:16;95339.75;;;26.63;25.64
6030;BME280;3043;42.682;23.376;2023-04-28T08:16:41;95337.75;;;25.21;26.31
6030;BME280;3043;42.682;23.376;2023-04-28T08:19:08;95341.16;;;25.23;26.23
6030;BME280;3043;42.682;23.376;2023-04-28T08:21:34;95334.47;;;25.52;25.54
6030;BME280;3043;42.682;23.376;2023-04-28T08:23:59;95338.81;;;25.53;25.83
6030;BME280;3043;42.682;23.376;2023-04-28T08:26:25;95341.13;;;25.69;26.54
6030;BME280;3043;42.682;23.376;2023-04-28T08:28:51;95332.03;;;25.49;25.45
6030;BME280;3043;42.682;23.376;2023-04-28T08:31:17;95338.38;;;24.90;26.86
6030;BME280;3043;42.682;23.376;2023-04-28T08:33:42;95332.28;;;25.46;25.92
6030;BME280;3043;42.682;23.376;2023-04-28T08:36:10;95329.69;;;25.79;25.73
6030;BME280;3043;42.682;23.376;2023-04-28T08:38:37;95336.16;;;25.64;25.44
6030;BME280;3043;42.682;23.376;2023-04-28T08:41:03;95330.38;;;25.48;25.30
6030;BME280;3043;42.682;23.376;2023-04-28T08:43:34;95323.41;;;26.13;24.60
6030;BME280;3043;42.682;23.376;2023-04-28T08:46:04;95331.84;;;24.83;25.41
6030;BME280;3043;42.682;23.376;2023-04-28T08:48:33;95322.78;;;25.66;25.72
6030;BME280;3043;42.682;23.376;2023-04-28T08:51:01;95328.34;;;26.29;25.47
6030;BME280;3043;42.682;23.376;2023-04-28T08:53:27;95316.69;;;26.95;24.89
6030;BME280;3043;42.682;23.376;2023-04-28T08:55:56;95316.75;;;27.36;23.22
6030;BME280;3043;42.682;23.376;2023-04-28T08:58:26;95318.75;;;27.43;23.23
6030;BME280;3043;42.682;23.376;2023-04-28T09:00:52;95318.25;;;27.18;23.34
6030;BME280;3043;42.682;23.376;2023-04-28T09:03:19;95315.50;;;26.88;24.29
6030;BME280;3043;42.682;23.376;2023-04-28T09:05:45;95310.28;;;27.18;24.39
6030;BME280;3043;42.682;23.376;2023-04-28T09:08:10;95309.06;;;27.63;23.70
6030;BME280;3043;42.682;23.376;2023-04-28T09:10:36;95310.28;;;26.66;24.22
6030;BME280;3043;42.682;23.376;2023-04-28T09:13:02;95298.91;;;26.75;24.65
6030;BME280;3043;42.682;23.376;2023-04-28T09:15:36;95303.59;;;26.17;23.85
6030;BME280;3043;42.682;23.376;2023-04-28T09:18:05;95296.84;;;26.36;24.06
6030;BME280;3043;42.682;23.376;2023-04-28T09:20:34;95291.56;;;26.02;24.14
6030;BME280;3043;42.682;23.376;2023-04-28T09:23:17;95286.03;;;25.61;25.28
6030;BME280;3043;42.682;23.376;2023-04-28T09:26:03;95293.13;;;25.50;25.16
6030;BME280;3043;42.682;23.376;2023-04-28T09:28:29;95291.31;;;26.17;25.28
6030;BME280;3043;42.682;23.376;2023-04-28T09:30:55;95282.19;;;26.52;25.21
6030;BME280;3043;42.682;23.376;2023-04-28T09:33:21;95283.53;;;27.81;23.71
6030;BME280;3043;42.682;23.376;2023-04-28T09:35:47;95283.25;;;27.54;23.58
6030;BME280;3043;42.682;23.376;2023-04-28T09:38:14;95268.72;;;27.58;24.42
6030;BME280;3043;42.682;23.376;2023-04-28T09:43:35;95259.16;;;25.88;23.85
6030;BME280;3043;42.682;23.376;2023-04-28T09:46:04;95266.91;;;24.43;25.73
6030;BME280;3043;42.682;23.376;2023-04-28T09:48:33;95268.59;;;23.97;26.36
6030;BME280;3043;42.682;23.376;2023-04-28T09:51:01;95263.78;;;24.38;25.43
6030;BME280;3043;42.682;23.376;2023-04-28T09:53:27;95260.25;;;23.78;25.86
6030;BME280;3043;42.682;23.376;2023-04-28T09:55:54;95256.63;;;23.43;26.51
6030;BME280;3043;42.682;23.376;2023-04-28T09:58:22;95251.34;;;24.27;25.92
6030;BME280;3043;42.682;23.376;2023-04-28T10:00:55;95249.88;;;24.00;25.32
6030;BME280;3043;42.682;23.376;2023-04-28T10:03:23;95236.31;;;23.92;25.03
6030;BME280;3043;42.682;23.376;2023-04-28T10:05:49;95238.13;;;23.05;25.58
6030;BME280;3043;42.682;23.376;2023-04-28T10:08:21;95235.88;;;22.61;26.10
6030;BME280;3043;42.682;23.376;2023-04-28T10:10:51;95235.84;;;23.26;26.56
6030;BME280;3043;42.682;23.376;2023-04-28T10:13:19;95238.53;;;23.49;26.25
6030;BME280;3043;42.682;23.376;2023-04-28T10:15:46;95236.66;;;22.89;26.26
6030;BME280;3043;42.682;23.376;2023-04-28T10:18:12;95237.31;;;23.30;26.38
6030;BME280;3043;42.682;23.376;2023-04-28T10:20:44;95233.78;;;23.42;26.35
6030;BME280;3043;42.682;23.376;2023-04-28T10:23:45;95227.81;;;23.27;25.56
6030;BME280;3043;42.682;23.376;2023-04-28T10:26:03;95221.84;;;23.24;25.65
6030;BME280;3043;42.682;23.376;2023-04-28T10:28:34;95223.50;;;22.23;27.04
6030;BME280;3043;42.682;23.376;2023-04-28T10:31:14;95224.06;;;23.05;26.84
6030;BME280;3043;42.682;23.376;2023-04-28T10:33:40;95227.06;;;22.48;27.13
6030;BME280;3043;42.682;23.376;2023-04-28T10:36:06;95217.34;;;22.49;25.89
6030;BME280;3043;42.682;23.376;2023-04-28T10:38:33;95214.69;;;21.97;26.62
6030;BME280;3043;42.682;23.376;2023-04-28T10:40:59;95218.06;;;21.99;27.60
6030;BME280;3043;42.682;23.376;2023-04-28T10:58:37;95181.13;;;21.87;27.66
6030;BME280;3043;42.682;23.376;2023-04-28T11:03:52;95198.38;;;20.95;28.28
6030;BME280;3043;42.682;23.376;2023-04-28T11:06:44;95187.94;;;21.22;27.47
6030;BME280;3043;42.682;23.376;2023-04-28T11:17:03;95172.53;;;21.16;27.61
6030;BME280;3043;42.682;23.376;2023-04-28T11:19:29;95169.31;;;21.25;27.05
6030;BME280;3043;42.682;23.376;2023-04-28T11:21:57;95164.47;;;21.05;27.13
6030;BME280;3043;42.682;23.376;2023-04-28T11:24:24;95163.34;;;20.37;27.82
6030;BME280;3043;42.682;23.376;2023-04-28T11:26:56;95159.50;;;20.29;26.86
6030;BME280;3043;42.682;23.376;2023-04-28T11:31:58;95162.91;;;19.86;28.91
6030;BME280;3043;42.682;23.376;2023-04-28T11:34:24;95157.44;;;20.04;27.92
6030;BME280;3043;42.682;23.376;2023-04-28T11:36:49;95150.28;;;20.22;27.33
6030;BME280;3043;42.682;23.376;2023-04-28T11:39:15;95155.56;;;20.06;27.38
6030;BME280;3043;42.682;23.376;2023-04-28T11:41:42;95152.84;;;20.08;27.52
6030;BME280;3043;42.682;23.376;2023-04-28T11:47:00;95141.97;;;19.55;27.57
6030;BME280;3043;42.682;23.376;2023-04-28T11:49:31;95141.94;;;19.23;29.66
6030;BME280;3043;42.682;23.376;2023-04-28T11:52:04;95131.72;;;19.03;29.12
6030;BME280;3043;42.682;23.376;2023-04-28T11:54:30;95127.22;;;19.05;30.48
6030;BME280;3043;42.682;23.376;2023-04-28T11:56:57;95132.97;;;18.96;31.61
6030;BME280;3043;42.682;23.376;2023-04-28T11:59:25;95131.63;;;18.89;32.38
6030;BME280;3043;42.682;23.376;2023-04-28T12:07:08;95118.97;;;19.28;31.10
6030;BME280;3043;42.682;23.376;2023-04-28T12:09:39;95128.59;;;19.12;31.98
6030;BME280;3043;42.682;23.376;2023-04-28T12:12:35;95122.50;;;18.96;31.73
6030;BME280;3043;42.682;23.376;2023-04-28T12:17:29;95112.84;;;18.81;31.85
6030;BME280;3043;42.682;23.376;2023-04-28T12:19:55;95097.91;;;18.34;32.56
6030;BME280;3043;42.682;23.376;2023-04-28T12:22:22;95093.34;;;18.54;31.77
6030;BME280;3043;42.682;23.376;2023-04-28T12:25:08;95097.22;;;18.47;32.29
6030;BME280;3043;42.682;23.376;2023-04-28T12:27:34;95096.59;;;18.10;33.72
6030;BME280;3043;42.682;23.376;2023-04-28T12:30:03;95086.97;;;18.10;33.78
6030;BME280;3043;42.682;23.376;2023-04-28T12:32:37;95095.94;;;17.72;34.82
6030;BME280;3043;42.682;23.376;2023-04-28T12:35:03;95093.22;;;17.73;34.32
6030;BME280;3043;42.682;23.376;2023-04-28T12:37:30;95090.69;;;17.72;33.18
6030;BME280;3043;42.682;23.376;2023-04-28T12:39:56;95087.13;;;17.73;33.60
6030;BME280;3043;42.682;23.376;2023-04-28T12:42:22;95089.47;;;17.62;34.86
6030;BME280;3043;42.682;23.376;2023-04-28T12:44:47;95089.53;;;17.25;34.93
6030;BME280;3043;42.682;23.376;2023-04-28T12:47:15;95075.88;;;17.37;34.77
6030;BME280;3043;42.682;23.376;2023-04-28T12:49:43;95081.13;;;17.18;35.88
6030;BME280;3043;42.682;23.376;2023-04-28T12:52:09;95078.38;;;17.04;35.27
6030;BME280;3043;42.682;23.376;2023-04-28T12:54:35;95070.16;;;17.29;34.25
6030;BME280;3043;42.682;23.376;2023-04-28T12:57:01;95065.22;;;17.06;35.88
6030;BME280;3043;42.682;23.376;2023-04-28T12:59:27;95067.13;;;17.02;37.29
6030;BME280;3043;42.682;23.376;2023-04-28T13:01:53;95055.69;;;17.22;36.81
6030;BME280;3043;42.682;23.376;2023-04-28T13:04:20;95059.69;;;17.29;36.58
6030;BME280;3043;42.682;23.376;2023-04-28T13:06:45;95060.88;;;17.05;36.45
6030;BME280;3043;42.682;23.376;2023-04-28T13:09:12;95052.28;;;17.20;37.11
6030;BME280;3043;42.682;23.376;2023-04-28T13:11:39;95052.69;;;17.29;35.86
6030;BME280;3043;42.682;23.376;2023-04-28T13:14:04;95049.75;;;17.54;35.86
6030;BME280;3043;42.682;23.376;2023-04-28T13:16:30;95054.00;;;17.38;35.70
6030;BME280;3043;42.682;23.376;2023-04-28T13:18:56;95048.59;;;17.41;35.15
6030;BME280;3043;42.682;23.376;2023-04-28T13:21:25;95049.69;;;17.37;36.06
6030;BME280;3043;42.682;23.376;2023-04-28T13:23:52;95048.59;;;17.41;35.95
6030;BME280;3043;42.682;23.376;2023-04-28T13:26:18;95052.50;;;17.51;34.76
6030;BME280;3043;42.682;23.376;2023-04-28T13:28:45;95044.53;;;17.35;35.80
6030;BME280;3043;42.682;23.376;2023-04-28T13:31:12;95050.63;;;17.36;35.51
6030;BME280;3043;42.682;23.376;2023-04-28T13:33:37;95041.97;;;17.17;36.25
6030;BME280;3043;42.682;23.376;2023-04-28T13:36:03;95047.34;;;17.14;35.65
6030;BME280;3043;42.682;23.376;2023-04-28T13:38:29;95043.78;;;17.16;36.00
6030;BME280;3043;42.682;23.376;2023-04-28T13:40:54;95047.50;;;17.11;35.70
6030;BME280;3043;42.682;23.376;2023-04-28T13:43:20;95045.94;;;17.25;36.73
6030;BME280;3043;42.682;23.376;2023-04-28T13:45:45;95039.84;;;17.25;37.47
6030;BME280;3043;42.682;23.376;2023-04-28T13:48:11;95033.97;;;17.20;38.02